Latest Weather Observations for Fort Denison

IDN60801

Issued at 1:32 pm EDT Tuesday 21 February 2017 (issued every 30 minutes, with the page automatically refreshed every 10 minutes)

About weather observations | Map of weather stations | Latest weather observations for NSW | Other Formats
Station Details ID: 066022 Name: FORT DENISON Lat: -33.86 Lon: 151.23 Height: 5.0 m
Data from the previous 72 hours. | See also: Recent months for locations in New South Wales
Date/Time
EDT
Temp
°C
App
Temp
°C
Dew
Point
°C
Rel
Hum
%
Delta-T
°C
Wind Press
QNH
hPa
Press
MSL
hPa
Rain since
9am
mm
Dir  Spd
km/h
Gust
km/h
Spd
kts
Gust
kts
21/01:30pm - - - - - SE 17 24 9 13 - - -
21/01:00pm - - - - - ESE 17 22 9 12 - - -
21/12:30pm - - - - - SSE 17 22 9 12 - - -
21/12:00pm - - - - - ESE 17 24 9 13 - - -
21/11:30am - - - - - ESE 13 20 7 11 - - -
21/11:00am - - - - - S 9 17 5 9 - - -
21/10:30am - - - - - WNW 6 11 3 6 - - -
21/10:00am - - - - - W 11 13 6 7 - - -
21/09:30am - - - - - WNW 15 17 8 9 - - -
21/09:00am - - - - - WNW 17 19 9 10 - - -
21/08:30am - - - - - W 15 19 8 10 - - -
21/08:00am - - - - - W 15 19 8 10 - - -
21/07:30am - - - - - W 15 20 8 11 - - -
21/07:00am - - - - - W 17 22 9 12 - - -
21/06:30am - - - - - W 17 20 9 11 - - -
21/06:00am - - - - - W 15 19 8 10 - - -
21/05:30am - - - - - W 15 17 8 9 - - -
21/05:00am - - - - - WNW 11 15 6 8 - - -
21/04:30am - - - - - W 13 17 7 9 - - -
21/04:00am - - - - - W 15 19 8 10 - - -
21/03:30am - - - - - W 9 15 5 8 - - -
21/03:00am - - - - - WSW 9 15 5 8 - - -
21/02:30am - - - - - WNW 6 11 3 6 - - -
21/02:00am - - - - - SW 4 6 2 3 - - -
21/01:30am - - - - - WSW 9 13 5 7 - - -
21/01:00am - - - - - WSW 6 11 3 6 - - -
21/12:30am - - - - - NW 4 6 2 3 - - -
21/12:00am - - - - - NNW 2 4 1 2 - - -
 
Date/Time
EDT
Temp
°C
App
Temp
°C
Dew
Point
°C
Rel
Hum
%
Delta-T
°C
Wind Press
QNH
hPa
Press
MSL
hPa
Rain since
9am
mm
Dir  Spd
km/h
Gust
km/h
Spd
kts
Gust
kts
20/11:30pm - - - - - NNW 4 6 2 3 - - -
20/11:00pm - - - - - N 4 7 2 4 - - -
20/10:30pm - - - - - NE 4 7 2 4 - - -
20/10:00pm - - - - - N 7 11 4 6 - - -
20/09:30pm - - - - - NE 4 6 2 3 - - -
20/09:00pm - - - - - NE 7 9 4 5 - - -
20/08:30pm - - - - - ENE 11 15 6 8 - - -
20/08:00pm - - - - - ENE 11 15 6 8 - - -
20/07:30pm - - - - - ENE 13 19 7 10 - - -
20/07:00pm - - - - - E 13 19 7 10 - - -
20/06:30pm - - - - - E 17 22 9 12 - - -
20/06:00pm - - - - - E 20 24 11 13 - - -
20/05:30pm - - - - - E 19 24 10 13 - - -
20/05:00pm - - - - - E 19 24 10 13 - - -
20/04:30pm - - - - - ENE 24 30 13 16 - - -
20/04:00pm - - - - - NNE 19 28 10 15 - - -
20/03:30pm - - - - - W 15 24 8 13 - - -
20/03:00pm - - - - - WNW 19 24 10 13 - - -
20/02:30pm - - - - - WNW 13 24 7 13 - - -
20/02:00pm - - - - - WSW 15 24 8 13 - - -
20/01:30pm - - - - - W 17 30 9 16 - - -
20/01:00pm - - - - - W 19 30 10 16 - - -
20/12:30pm - - - - - W 20 30 11 16 - - -
20/12:00pm - - - - - W 17 26 9 14 - - -
20/11:30am - - - - - W 28 39 15 21 - - -
20/11:19am - - - - - W 26 46 14 25 - - -
20/11:00am - - - - - W 28 41 15 22 - - -
20/10:30am - - - - - W 33 46 18 25 - - -
20/10:03am - - - - - W 30 48 16 26 - - -
20/10:00am - - - - - W 28 39 15 21 - - -
20/09:30am - - - - - W 33 52 18 28 - - -
20/09:12am - - - - - W 35 63 19 34 - - -
20/09:00am - - - - - W 35 52 19 28 - - -
20/08:50am - - - - - W 28 48 15 26 - - -
20/08:30am - - - - - W 28 41 15 22 - - -
20/08:00am - - - - - W 17 26 9 14 - - -
20/07:38am - - - - - WSW 28 46 15 25 - - -
20/07:30am - - - - - W 22 32 12 17 - - -
20/07:00am - - - - - W 17 28 9 15 - - -
20/06:30am - - - - - WSW 19 32 10 17 - - -
20/06:00am - - - - - WSW 11 17 6 9 - - -
20/05:30am - - - - - WSW 9 17 5 9 - - -
20/05:00am - - - - - WSW 17 24 9 13 - - -
20/04:30am - - - - - WSW 17 26 9 14 - - -
20/04:00am - - - - - WSW 17 26 9 14 - - -
20/03:30am - - - - - WSW 19 30 10 16 - - -
20/03:00am - - - - - SW 15 28 8 15 - - -
20/02:30am - - - - - WSW 13 24 7 13 - - -
20/02:00am - - - - - W 17 24 9 13 - - -
20/01:30am - - - - - W 13 17 7 9 - - -
20/01:00am - - - - - W 13 15 7 8 - - -
20/12:30am - - - - - W 15 19 8 10 - - -
20/12:00am - - - - - W 17 20 9 11 - - -
 
Date/Time
EDT
Temp
°C
App
Temp
°C
Dew
Point
°C
Rel
Hum
%
Delta-T
°C
Wind Press
QNH
hPa
Press
MSL
hPa
Rain since
9am
mm
Dir  Spd
km/h
Gust
km/h
Spd
kts
Gust
kts
19/11:30pm - - - - - WSW 9 13 5 7 - - -
19/11:00pm - - - - - SW 9 15 5 8 - - -
19/10:30pm - - - - - W 9 13 5 7 - - -
19/10:00pm - - - - - SSW 17 24 9 13 - - -
19/09:30pm - - - - - SSW 13 24 7 13 - - -
19/09:00pm - - - - - WSW 6 7 3 4 - - -
19/08:30pm - - - - - NNE 11 17 6 9 - - -
19/08:00pm - - - - - ENE 9 11 5 6 - - -
19/07:30pm - - - - - ESE 19 24 10 13 - - -
19/07:00pm - - - - - ESE 19 24 10 13 - - -
19/06:30pm - - - - - ESE 19 26 10 14 - - -
19/06:00pm - - - - - E 19 24 10 13 - - -
19/05:30pm - - - - - ESE 20 26 11 14 - - -
19/05:00pm - - - - - ESE 22 26 12 14 - - -
19/04:30pm - - - - - E 20 26 11 14 - - -
19/04:00pm - - - - - ESE 22 26 12 14 - - -
19/03:30pm - - - - - ESE 22 28 12 15 - - -
19/03:00pm - - - - - ESE 19 22 10 12 - - -
19/02:30pm - - - - - ESE 19 22 10 12 - - -
19/02:00pm - - - - - E 15 19 8 10 - - -
19/01:30pm - - - - - ESE 15 22 8 12 - - -
19/01:00pm - - - - - ESE 6 11 3 6 - - -
19/12:30pm - - - - - S 9 15 5 8 - - -
19/12:00pm - - - - - S 9 17 5 9 - - -
19/11:30am - - - - - SSW 11 20 6 11 - - -
19/11:00am - - - - - SSW 15 24 8 13 - - -
19/10:30am - - - - - SSW 15 24 8 13 - - -
19/10:00am - - - - - SSW 11 17 6 9 - - -
19/09:30am - - - - - SW 6 13 3 7 - - -
19/09:00am - - - - - W 19 24 10 13 - - -
19/08:30am - - - - - SW 17 32 9 17 - - -
19/08:00am - - - - - SW 15 24 8 13 - - -
19/07:30am - - - - - SW 11 26 6 14 - - -
19/07:00am - - - - - SW 17 28 9 15 - - -
19/06:30am - - - - - SSW 26 37 14 20 - - -
19/06:00am - - - - - SSW 26 37 14 20 - - -
19/05:30am - - - - - SSW 24 43 13 23 - - -
19/05:00am - - - - - SSW 26 39 14 21 - - -
19/04:30am - - - - - SSW 28 43 15 23 - - -
19/04:00am - - - - - SSW 24 44 13 24 - - -
19/03:30am - - - - - SSW 28 44 15 24 - - -
19/03:00am - - - - - S 26 39 14 21 - - -
19/02:31am - - - - - S 28 48 15 26 - - -
19/02:30am - - - - - S 26 48 14 26 - - -
19/02:00am - - - - - SSW 22 35 12 19 - - -
19/01:30am - - - - - SSW 24 41 13 22 - - -
19/01:00am - - - - - SSW 17 30 9 16 - - -
19/12:30am - - - - - SSW 19 28 10 15 - - -
19/12:00am - - - - - SSW 13 24 7 13 - - -
 
Date/Time
EDT
Temp
°C
App
Temp
°C
Dew
Point
°C
Rel
Hum
%
Delta-T
°C
Wind Press
QNH
hPa
Press
MSL
hPa
Rain since
9am
mm
Dir  Spd
km/h
Gust
km/h
Spd
kts
Gust
kts
18/11:30pm - - - - - SSW 15 24 8 13 - - -
18/11:00pm - - - - - SSW 15 20 8 11 - - -
18/10:30pm - - - - - S 6 11 3 6 - - -
18/10:00pm - - - - - SSW 9 13 5 7 - - -
18/09:30pm - - - - - S 6 11 3 6 - - -
18/09:00pm - - - - - SSW 13 24 7 13 - - -
18/08:30pm - - - - - SSW 17 28 9 15 - - -
18/08:00pm - - - - - S 17 28 9 15 - - -
18/07:30pm - - - - - S 17 26 9 14 - - -
18/07:00pm - - - - - S 17 26 9 14 - - -
18/06:30pm - - - - - SSE 20 30 11 16 - - -
18/06:00pm - - - - - SE 20 39 11 21 - - -
18/05:30pm - - - - - ESE 17 24 9 13 - - -
18/05:00pm - - - - - ESE 13 20 7 11 - - -
18/04:30pm - - - - - E 22 26 12 14 - - -
18/04:00pm - - - - - ESE 22 32 12 17 - - -
18/03:30pm - - - - - ESE 24 32 13 17 - - -
18/03:00pm - - - - - ESE 20 32 11 17 - - -
18/02:30pm - - - - - SE 20 33 11 18 - - -
18/02:00pm - - - - - SSE 26 37 14 20 - - -

Other Formats:

Comma delimited format used in spreadsheet applications
http://www.bom.gov.au/fwo/IDN60801/IDN60801.94769.axf

JavaScript Object Notation format (JSON) in row-major order
http://www.bom.gov.au/fwo/IDN60801/IDN60801.94769.json